createdAt,value
2018-06-14T00:00:12.592Z,99.90
2018-06-14T00:02:41.131Z,99.90
2018-06-14T00:05:09.613Z,99.90
2018-06-14T00:07:39.061Z,99.90
2018-06-14T00:10:07.607Z,99.90
2018-06-14T00:12:36.130Z,99.90
2018-06-14T00:15:05.051Z,99.90
2018-06-14T00:17:33.556Z,99.90
2018-06-14T00:20:02.025Z,99.90
2018-06-14T00:22:30.520Z,99.90
2018-06-14T00:24:59.101Z,99.90
2018-06-14T00:27:27.743Z,99.90
2018-06-14T00:29:56.163Z,99.90
2018-06-14T00:32:24.783Z,99.90
2018-06-14T00:34:53.356Z,99.90
2018-06-14T00:37:21.765Z,99.90
2018-06-14T00:39:50.232Z,99.90
2018-06-14T00:42:18.711Z,99.90
2018-06-14T00:44:47.321Z,99.90
2018-06-14T00:47:15.796Z,99.90
2018-06-14T00:49:44.366Z,99.90
2018-06-14T00:52:12.843Z,99.90
2018-06-14T00:54:41.351Z,99.90
2018-06-14T00:57:21.241Z,99.90
2018-06-14T00:59:49.789Z,99.90
2018-06-14T01:02:18.312Z,99.90
2018-06-14T01:04:46.777Z,99.90
2018-06-14T01:07:15.344Z,99.90
2018-06-14T01:12:12.133Z,99.90
2018-06-14T01:14:40.665Z,99.90
2018-06-14T01:17:09.457Z,99.90
2018-06-14T01:19:37.931Z,99.90
2018-06-14T01:22:06.671Z,99.90
2018-06-14T01:24:35.135Z,99.90
2018-06-14T01:27:07.004Z,99.90
2018-06-14T01:29:35.487Z,99.90
2018-06-14T01:32:04.228Z,99.90
2018-06-14T01:34:32.786Z,99.90
2018-06-14T01:37:01.268Z,99.90
2018-06-14T01:39:29.810Z,99.90
2018-06-14T01:41:58.301Z,99.90
2018-06-14T01:44:26.830Z,99.90
2018-06-14T01:46:55.323Z,99.90
2018-06-14T01:49:23.880Z,99.90
2018-06-14T01:51:52.314Z,99.90
2018-06-14T01:54:20.778Z,99.90
2018-06-14T01:56:49.276Z,99.90
2018-06-14T01:59:17.906Z,99.90
2018-06-14T02:01:46.488Z,99.90
2018-06-14T02:04:15.084Z,99.90
2018-06-14T02:06:43.638Z,99.90
2018-06-14T02:09:12.117Z,99.90
2018-06-14T02:11:40.634Z,99.90
2018-06-14T02:14:09.044Z,99.90
2018-06-14T02:16:37.746Z,99.90
2018-06-14T02:19:06.204Z,99.90
2018-06-14T02:21:34.705Z,99.90
2018-06-14T02:24:03.211Z,99.90
2018-06-14T02:26:31.705Z,99.90
2018-06-14T02:29:00.157Z,99.90
2018-06-14T02:31:28.598Z,99.90
2018-06-14T02:33:57.082Z,99.90
2018-06-14T02:38:53.875Z,99.90
2018-06-14T02:41:22.513Z,99.90
2018-06-14T02:43:51.089Z,99.90
2018-06-14T02:46:19.608Z,99.90
2018-06-14T02:48:48.177Z,99.90
2018-06-14T02:51:16.698Z,99.90
2018-06-14T02:53:45.231Z,99.90
2018-06-14T02:56:13.647Z,99.90
2018-06-14T02:58:42.100Z,99.90
2018-06-14T03:01:10.652Z,99.90
2018-06-14T03:03:39.103Z,99.90
2018-06-14T03:06:07.519Z,99.90
2018-06-14T03:08:36.015Z,99.90
2018-06-14T03:11:04.563Z,99.90
2018-06-14T03:13:33.057Z,99.90
2018-06-14T03:16:01.518Z,99.90
2018-06-14T03:18:30.017Z,99.90
2018-06-14T03:20:58.575Z,99.90
2018-06-14T03:23:27.092Z,99.90
2018-06-14T03:25:55.540Z,99.90
2018-06-14T03:28:23.932Z,99.90
2018-06-14T03:30:52.352Z,99.90
2018-06-14T03:33:20.939Z,99.90
2018-06-14T03:35:49.361Z,99.90
2018-06-14T03:38:17.862Z,99.90
2018-06-14T03:40:46.289Z,99.90
2018-06-14T03:43:14.757Z,99.90
2018-06-14T03:45:43.168Z,99.90
2018-06-14T03:48:11.840Z,99.90
2018-06-14T03:50:40.354Z,99.90
2018-06-14T03:53:08.779Z,99.90
2018-06-14T03:55:37.210Z,99.90
2018-06-14T03:58:05.976Z,99.90
2018-06-14T04:00:34.477Z,99.90
2018-06-14T04:03:03.031Z,99.90
2018-06-14T04:05:31.438Z,99.90
2018-06-14T04:07:59.853Z,99.90
2018-06-14T04:10:28.393Z,99.90
2018-06-14T04:12:56.717Z,99.90
2018-06-14T04:15:25.154Z,99.90
2018-06-14T04:17:59.075Z,99.90
2018-06-14T04:20:27.810Z,99.90
2018-06-14T04:22:57.060Z,99.90
2018-06-14T04:25:25.699Z,99.90
2018-06-14T04:27:54.093Z,99.90
2018-06-14T04:30:22.746Z,99.90
2018-06-14T04:32:51.612Z,99.90
2018-06-14T04:35:20.057Z,99.90
2018-06-14T04:37:48.602Z,99.90
2018-06-14T04:40:17.073Z,99.90
2018-06-14T04:45:13.914Z,99.90
2018-06-14T04:47:42.490Z,99.90
2018-06-14T04:50:11.025Z,99.90
2018-06-14T04:52:39.694Z,99.90
2018-06-14T04:55:08.196Z,99.90
2018-06-14T04:57:36.697Z,99.90
2018-06-14T05:00:08.333Z,99.90
2018-06-14T05:02:36.882Z,99.90
2018-06-14T05:05:06.460Z,99.90
2018-06-14T05:07:35.233Z,99.90
2018-06-14T05:10:03.776Z,99.90
2018-06-14T05:12:32.194Z,99.90
2018-06-14T05:15:00.641Z,99.90
2018-06-14T05:17:29.090Z,99.90
2018-06-14T05:19:57.577Z,99.90
2018-06-14T05:24:54.192Z,99.90
2018-06-14T05:27:22.713Z,99.90
2018-06-14T05:29:51.276Z,99.90
2018-06-14T05:32:19.793Z,99.90
2018-06-14T05:34:48.360Z,99.90
2018-06-14T05:37:16.932Z,99.90
2018-06-14T05:39:45.371Z,99.90
2018-06-14T05:42:13.897Z,99.90
2018-06-14T05:44:42.374Z,99.90
2018-06-14T05:47:10.815Z,99.90
2018-06-14T05:49:39.369Z,99.90
2018-06-14T05:52:07.864Z,99.90
2018-06-14T05:54:36.311Z,99.90
2018-06-14T05:57:04.782Z,99.90
2018-06-14T05:59:33.257Z,99.90
2018-06-14T06:02:01.709Z,99.90
2018-06-14T06:04:30.118Z,99.90
2018-06-14T06:06:58.644Z,99.90
2018-06-14T06:09:27.121Z,99.90
2018-06-14T06:11:55.599Z,99.90
2018-06-14T06:14:24.106Z,99.90
2018-06-14T06:16:52.536Z,99.90
2018-06-14T06:19:21.023Z,99.90
2018-06-14T06:21:49.500Z,99.90
2018-06-14T06:26:46.145Z,99.90
2018-06-14T06:29:14.698Z,99.90
2018-06-14T06:31:43.124Z,99.90
2018-06-14T06:34:11.572Z,99.90
2018-06-14T06:36:40.692Z,99.90
2018-06-14T06:39:11.124Z,99.90
2018-06-14T06:41:39.596Z,99.90
2018-06-14T06:44:08.401Z,99.90
2018-06-14T06:46:36.983Z,99.90
2018-06-14T06:49:05.579Z,99.90
2018-06-14T06:51:33.975Z,99.90
2018-06-14T06:54:02.571Z,99.90
2018-06-14T06:56:31.020Z,99.90
2018-06-14T06:58:59.667Z,99.90
2018-06-14T07:01:28.008Z,99.90
2018-06-14T07:03:56.480Z,99.90
2018-06-14T07:06:24.955Z,99.90
2018-06-14T07:08:53.454Z,99.90
2018-06-14T07:11:21.908Z,99.90
2018-06-14T07:13:50.636Z,99.90
2018-06-14T07:16:19.160Z,99.90
2018-06-14T07:18:47.552Z,99.90
2018-06-14T07:21:15.969Z,99.90
2018-06-14T07:23:44.426Z,99.90
2018-06-14T07:26:12.982Z,99.90
2018-06-14T07:28:41.393Z,99.90
2018-06-14T07:31:09.842Z,99.90
2018-06-14T07:33:38.531Z,99.90
2018-06-14T07:36:07.024Z,99.90
2018-06-14T07:38:35.465Z,99.90
2018-06-14T07:41:03.868Z,99.90
2018-06-14T07:43:32.294Z,99.90
2018-06-14T07:46:00.754Z,99.90
2018-06-14T07:48:29.175Z,99.90
2018-06-14T07:50:57.630Z,99.90
2018-06-14T07:53:26.082Z,99.90
2018-06-14T07:55:54.535Z,99.90
2018-06-14T07:58:22.989Z,99.90
2018-06-14T08:00:51.625Z,99.90
2018-06-14T08:03:20.057Z,99.90
2018-06-14T08:05:48.510Z,99.90
2018-06-14T08:08:17.013Z,99.90
2018-06-14T08:10:45.473Z,99.90
2018-06-14T08:13:14.126Z,99.90
2018-06-14T08:15:44.452Z,99.90
2018-06-14T08:18:13.630Z,99.90
2018-06-14T08:20:42.129Z,99.90
2018-06-14T08:23:10.683Z,99.90
2018-06-14T08:25:39.193Z,99.90
2018-06-14T08:28:07.889Z,99.90
2018-06-14T08:30:36.416Z,98.90
2018-06-14T08:33:04.994Z,98.50
2018-06-14T08:35:33.461Z,97.10
2018-06-14T08:38:01.969Z,96.60
2018-06-14T08:40:30.482Z,96.80
2018-06-14T08:42:58.963Z,96.60
2018-06-14T08:45:27.397Z,96.90
2018-06-14T08:47:55.847Z,97.50
2018-06-14T08:50:24.360Z,96.30
2018-06-14T08:52:52.848Z,95.80
2018-06-14T08:55:23.866Z,96.40
2018-06-14T08:57:52.430Z,97.00
2018-06-14T09:00:20.941Z,96.20
2018-06-14T09:02:49.992Z,96.60
2018-06-14T09:05:18.563Z,96.70
2018-06-14T09:07:46.964Z,96.20
2018-06-14T09:10:15.416Z,95.40
2018-06-14T09:12:43.896Z,95.50
2018-06-14T09:15:12.310Z,95.70
2018-06-14T09:17:40.812Z,94.70
2018-06-14T09:20:09.296Z,91.20
2018-06-14T09:22:37.726Z,90.50
2018-06-14T09:25:06.231Z,91.20
2018-06-14T09:27:34.632Z,91.80
2018-06-14T09:30:03.135Z,92.30
2018-06-14T09:35:00.041Z,94.80
2018-06-14T09:37:28.638Z,95.10
2018-06-14T09:39:59.987Z,95.50
2018-06-14T09:42:28.600Z,96.00
2018-06-14T09:44:57.033Z,96.40
2018-06-14T09:47:25.562Z,96.30
2018-06-14T09:49:54.052Z,96.10
2018-06-14T09:52:22.509Z,96.60
2018-06-14T09:54:51.202Z,97.10
2018-06-14T09:57:19.722Z,96.70
2018-06-14T09:59:48.313Z,96.70
2018-06-14T10:02:16.746Z,96.10
2018-06-14T10:04:45.253Z,95.70
2018-06-14T10:07:13.716Z,95.70
2018-06-14T10:09:42.331Z,95.70
2018-06-14T10:12:10.901Z,96.60
2018-06-14T10:14:39.400Z,97.10
2018-06-14T10:17:08.096Z,96.20
2018-06-14T10:19:36.553Z,95.00
2018-06-14T10:22:05.028Z,95.10
2018-06-14T10:24:33.470Z,95.10
2018-06-14T10:27:02.037Z,94.90
2018-06-14T10:29:30.502Z,94.30
2018-06-14T10:31:58.956Z,93.40
2018-06-14T10:34:27.389Z,94.10
2018-06-14T10:36:55.939Z,94.80
2018-06-14T10:39:24.413Z,94.50
2018-06-14T10:41:52.943Z,93.60
2018-06-14T10:44:21.387Z,92.60
2018-06-14T10:46:49.840Z,92.80
2018-06-14T10:49:18.294Z,94.00
2018-06-14T10:51:46.746Z,94.80
2018-06-14T10:54:15.281Z,94.60
2018-06-14T10:56:43.809Z,94.30
2018-06-14T10:59:12.282Z,93.50
2018-06-14T11:01:40.778Z,92.60
2018-06-14T11:04:09.404Z,92.70
2018-06-14T11:06:38.156Z,92.70
2018-06-14T11:09:08.974Z,93.30
2018-06-14T11:11:37.531Z,94.20
2018-06-14T11:14:06.043Z,93.50
2018-06-14T11:16:34.455Z,92.40
2018-06-14T11:19:02.898Z,93.80
2018-06-14T11:21:31.335Z,93.50
2018-06-14T11:23:59.798Z,92.70
2018-06-14T11:26:28.803Z,92.60
2018-06-14T11:31:25.483Z,90.90
2018-06-14T11:33:54.466Z,91.30
2018-06-14T11:36:22.923Z,90.50
2018-06-14T11:38:51.481Z,90.50
2018-06-14T11:41:20.023Z,90.00
2018-06-14T11:43:48.713Z,90.40
2018-06-14T11:46:17.306Z,90.50
2018-06-14T11:48:45.798Z,90.20
2018-06-14T11:51:14.328Z,89.20
2018-06-14T11:53:42.875Z,85.30
2018-06-14T11:56:11.354Z,86.60
2018-06-14T11:58:39.864Z,82.80
2018-06-14T12:01:08.600Z,82.30
2018-06-14T12:03:37.089Z,82.80
2018-06-14T12:06:05.590Z,84.60
2018-06-14T12:08:34.165Z,85.10
2018-06-14T12:11:02.767Z,83.90
2018-06-14T12:13:31.254Z,84.90
2018-06-14T12:15:59.729Z,83.50
2018-06-14T12:18:28.200Z,86.70
2018-06-14T12:20:56.685Z,90.60
2018-06-14T12:23:25.135Z,91.00
2018-06-14T12:25:53.770Z,91.20
2018-06-14T12:28:22.484Z,90.70
2018-06-14T12:30:50.991Z,90.30
2018-06-14T12:33:19.465Z,90.30
2018-06-14T12:35:47.916Z,90.20
2018-06-14T12:38:16.449Z,88.30
2018-06-14T12:40:44.959Z,85.00
2018-06-14T12:43:13.509Z,85.20
2018-06-14T12:45:41.947Z,81.50
2018-06-14T12:48:10.430Z,78.90
2018-06-14T12:50:38.874Z,77.30
2018-06-14T12:53:07.323Z,75.80
2018-06-14T12:55:35.724Z,77.20
2018-06-14T12:58:04.194Z,80.20
2018-06-14T13:00:32.923Z,78.50
2018-06-14T13:03:01.628Z,78.60
2018-06-14T13:05:30.279Z,81.00
2018-06-14T13:07:58.825Z,81.50
2018-06-14T13:10:27.232Z,81.10
2018-06-14T13:12:55.718Z,80.00
2018-06-14T13:15:24.228Z,78.50
2018-06-14T13:17:52.779Z,79.70
2018-06-14T13:20:21.252Z,79.10
2018-06-14T13:22:49.659Z,77.30
2018-06-14T13:25:18.151Z,77.00
2018-06-14T13:27:46.616Z,75.00
2018-06-14T13:30:15.087Z,75.70
2018-06-14T13:32:43.637Z,75.50
2018-06-14T13:35:12.400Z,76.70
2018-06-14T13:37:40.916Z,77.50
2018-06-14T13:40:09.399Z,76.00
2018-06-14T13:42:37.954Z,77.20
2018-06-14T13:45:06.493Z,76.70
2018-06-14T13:47:34.953Z,74.10
2018-06-14T13:52:31.806Z,78.70
2018-06-14T13:55:00.295Z,80.00
2018-06-14T13:57:28.745Z,83.30
2018-06-14T13:59:57.266Z,83.90
2018-06-14T14:02:25.814Z,83.90
2018-06-14T14:04:54.314Z,84.30
2018-06-14T14:07:27.533Z,83.50
2018-06-14T14:09:57.086Z,82.70
2018-06-14T14:12:26.127Z,82.60
2018-06-14T14:14:54.935Z,83.50
2018-06-14T14:17:23.501Z,84.10
2018-06-14T14:19:52.043Z,85.30
2018-06-14T14:22:20.563Z,83.20
2018-06-14T14:24:49.281Z,84.10
2018-06-14T14:27:17.826Z,83.60
2018-06-14T14:29:46.468Z,84.60
2018-06-14T14:32:15.262Z,82.90
2018-06-14T14:34:43.900Z,81.20
2018-06-14T14:37:12.704Z,80.50
2018-06-14T14:39:41.213Z,81.30
2018-06-14T14:42:09.892Z,82.00
2018-06-14T14:44:38.507Z,81.90
2018-06-14T14:47:07.135Z,82.30
2018-06-14T14:49:35.820Z,83.20
2018-06-14T14:52:04.466Z,83.10
2018-06-14T14:54:33.178Z,82.30
2018-06-14T14:57:01.967Z,82.60
2018-06-14T14:59:30.636Z,80.70
2018-06-14T15:01:59.504Z,80.20
2018-06-14T15:04:28.061Z,81.20
2018-06-14T15:06:56.615Z,79.70
2018-06-14T15:09:25.173Z,78.90
2018-06-14T15:11:53.780Z,78.90
2018-06-14T15:14:22.518Z,79.40
2018-06-14T15:19:19.339Z,76.60
2018-06-14T15:21:48.132Z,78.40
2018-06-14T15:24:16.727Z,80.50
2018-06-14T15:26:45.494Z,82.80
2018-06-14T15:29:14.053Z,82.50
2018-06-14T15:31:42.614Z,81.10
2018-06-14T15:34:11.144Z,82.80
2018-06-14T15:36:39.804Z,84.00
2018-06-14T15:39:09.041Z,81.10
2018-06-14T15:41:37.761Z,82.50
2018-06-14T15:44:06.306Z,81.60
2018-06-14T15:46:34.788Z,81.70
2018-06-14T15:49:03.683Z,82.90
2018-06-14T15:51:32.194Z,85.90
2018-06-14T15:54:00.861Z,81.10
2018-06-14T15:56:40.664Z,81.40
2018-06-14T15:59:10.479Z,81.60
2018-06-14T16:01:39.328Z,81.20
2018-06-14T16:04:08.628Z,81.20
2018-06-14T16:06:37.274Z,83.40
2018-06-14T16:09:10.066Z,83.90
2018-06-14T16:11:38.675Z,84.00
2018-06-14T16:14:07.537Z,82.60
2018-06-14T16:16:36.321Z,84.30
2018-06-14T16:19:05.105Z,82.80
2018-06-14T16:21:33.732Z,81.00
2018-06-14T16:24:02.597Z,80.50
2018-06-14T16:26:31.253Z,80.70
2018-06-14T16:28:59.879Z,82.10
2018-06-14T16:31:28.458Z,81.00
2018-06-14T16:33:57.040Z,81.00
2018-06-14T16:36:25.603Z,81.70
2018-06-14T16:38:54.334Z,84.40
2018-06-14T16:41:22.869Z,84.20
2018-06-14T16:43:51.738Z,83.50
2018-06-14T16:46:20.446Z,84.90
2018-06-14T16:48:49.176Z,86.30
2018-06-14T16:51:18.125Z,85.40
2018-06-14T16:53:46.891Z,84.90
2018-06-14T16:56:15.708Z,85.00
2018-06-14T16:58:44.419Z,85.40
2018-06-14T17:01:13.301Z,85.50
2018-06-14T17:03:42.122Z,86.50
2018-06-14T17:06:11.120Z,85.90
2018-06-14T17:08:39.844Z,86.30
2018-06-14T17:11:08.622Z,88.60
2018-06-14T17:13:37.855Z,87.80
2018-06-14T17:16:06.573Z,86.40
2018-06-14T17:18:35.105Z,87.50
2018-06-14T17:21:04.042Z,89.40
2018-06-14T17:23:32.632Z,87.80
2018-06-14T17:26:01.173Z,87.70
2018-06-14T17:28:29.808Z,88.70
2018-06-14T17:30:58.376Z,89.60
2018-06-14T17:33:26.897Z,90.00
2018-06-14T17:35:55.512Z,90.00
2018-06-14T17:38:24.199Z,90.10
2018-06-14T17:40:52.799Z,89.90
2018-06-14T17:43:21.454Z,90.10
2018-06-14T17:45:50.062Z,90.80
2018-06-14T17:48:18.901Z,90.10
2018-06-14T17:50:47.681Z,90.40
2018-06-14T17:53:16.358Z,89.50
2018-06-14T17:55:45.718Z,89.80
2018-06-14T17:58:14.421Z,91.10
2018-06-14T18:00:42.987Z,91.10
2018-06-14T18:03:11.604Z,90.60
2018-06-14T18:05:40.185Z,90.20
2018-06-14T18:08:08.731Z,89.60
2018-06-14T18:10:37.303Z,90.00
2018-06-14T18:13:05.930Z,90.20
2018-06-14T18:15:34.566Z,90.00
2018-06-14T18:18:03.109Z,90.10
2018-06-14T18:20:31.696Z,90.60
2018-06-14T18:23:00.488Z,91.60
2018-06-14T18:25:29.094Z,91.90
2018-06-14T18:27:57.762Z,91.80
2018-06-14T18:30:26.539Z,92.40
2018-06-14T18:32:55.351Z,93.00
2018-06-14T18:35:24.298Z,93.60
2018-06-14T18:37:52.978Z,93.80
2018-06-14T18:40:21.740Z,94.30
2018-06-14T18:42:50.541Z,94.80
2018-06-14T18:45:19.239Z,95.40
2018-06-14T18:47:47.816Z,95.60
2018-06-14T18:50:16.419Z,95.80
2018-06-14T18:52:45.803Z,95.90
2018-06-14T18:55:14.700Z,96.50
2018-06-14T18:57:43.430Z,96.50
2018-06-14T19:00:12.536Z,96.80
2018-06-14T19:02:41.203Z,96.80
2018-06-14T19:05:10.101Z,97.30
2018-06-14T19:07:38.769Z,97.50
2018-06-14T19:10:07.438Z,98.10
2018-06-14T19:12:36.147Z,98.50
2018-06-14T19:15:05.048Z,99.00
2018-06-14T19:17:33.961Z,99.40
2018-06-14T19:20:02.669Z,99.70
2018-06-14T19:22:31.495Z,99.90
2018-06-14T19:25:00.178Z,99.90
2018-06-14T19:27:28.881Z,99.90
2018-06-14T19:29:57.858Z,99.90
2018-06-14T19:32:26.746Z,99.90
2018-06-14T19:34:56.404Z,99.90
2018-06-14T19:37:25.163Z,99.90
2018-06-14T19:39:53.811Z,99.90
2018-06-14T19:42:22.688Z,99.90
2018-06-14T19:44:51.530Z,99.90
2018-06-14T19:47:20.135Z,99.90
2018-06-14T19:49:49.400Z,99.90
2018-06-14T19:52:18.306Z,99.90
2018-06-14T19:54:48.157Z,99.90
2018-06-14T19:57:16.894Z,99.90
2018-06-14T19:59:46.084Z,99.90
2018-06-14T20:02:14.826Z,99.90
2018-06-14T20:04:44.721Z,99.90
2018-06-14T20:07:13.518Z,99.90
2018-06-14T20:09:42.598Z,99.90
2018-06-14T20:12:11.361Z,99.90
2018-06-14T20:14:40.067Z,99.90
2018-06-14T20:17:08.857Z,99.90
2018-06-14T20:19:37.948Z,99.90
2018-06-14T20:22:06.928Z,99.90
2018-06-14T20:24:35.525Z,99.90
2018-06-14T20:27:04.645Z,99.90
2018-06-14T20:29:33.135Z,99.90
2018-06-14T20:32:01.788Z,99.90
2018-06-14T20:34:30.377Z,99.90
2018-06-14T20:36:59.961Z,99.90
2018-06-14T20:39:29.712Z,99.90
2018-06-14T20:41:58.426Z,99.90
2018-06-14T20:44:26.866Z,99.90
2018-06-14T20:46:55.403Z,99.90
2018-06-14T20:49:24.093Z,99.90
2018-06-14T20:51:52.644Z,99.90
2018-06-14T20:54:21.234Z,99.90
2018-06-14T20:56:49.778Z,99.90
2018-06-14T20:59:18.407Z,99.90
2018-06-14T21:01:46.962Z,99.90
2018-06-14T21:04:15.640Z,99.90
2018-06-14T21:06:44.265Z,99.90
2018-06-14T21:09:12.750Z,99.90
2018-06-14T21:11:41.304Z,99.90
2018-06-14T21:14:09.886Z,99.90
2018-06-14T21:16:38.548Z,99.90
2018-06-14T21:19:07.062Z,99.90
2018-06-14T21:21:35.678Z,99.90
2018-06-14T21:24:04.217Z,99.90
2018-06-14T21:26:32.730Z,99.90
2018-06-14T21:29:01.322Z,99.90
2018-06-14T21:31:29.998Z,99.90
2018-06-14T21:33:58.531Z,99.90
2018-06-14T21:36:27.031Z,99.90
2018-06-14T21:38:55.549Z,99.90
2018-06-14T21:41:24.038Z,99.90
2018-06-14T21:43:52.632Z,99.90
2018-06-14T21:46:21.116Z,99.90
2018-06-14T21:48:49.575Z,99.90
2018-06-14T21:51:18.058Z,99.90
2018-06-14T21:53:46.497Z,99.90
2018-06-14T21:56:15.021Z,99.90
2018-06-14T21:58:43.476Z,99.90
2018-06-14T22:01:11.948Z,99.90
2018-06-14T22:03:45.695Z,99.90
2018-06-14T22:06:14.168Z,99.90
2018-06-14T22:08:42.613Z,99.90
2018-06-14T22:13:39.200Z,99.90
2018-06-14T22:16:07.698Z,99.90
2018-06-14T22:18:36.183Z,99.90
2018-06-14T22:21:04.773Z,99.90
2018-06-14T22:23:33.602Z,99.90
2018-06-14T22:26:02.096Z,99.90
2018-06-14T22:28:30.718Z,99.90
2018-06-14T22:31:01.249Z,99.90
2018-06-14T22:33:41.251Z,99.90
2018-06-14T22:36:10.029Z,99.90
2018-06-14T22:38:38.481Z,99.90
2018-06-14T22:41:07.074Z,99.90
2018-06-14T22:43:35.652Z,99.90
2018-06-14T22:46:04.293Z,99.90
2018-06-14T22:48:32.899Z,99.90
2018-06-14T22:51:12.427Z,99.90
2018-06-14T22:53:41.118Z,99.90
2018-06-14T22:56:09.816Z,99.90
2018-06-14T22:58:38.405Z,99.90
2018-06-14T23:01:53.182Z,99.90
2018-06-14T23:04:24.600Z,99.90
2018-06-14T23:06:53.638Z,99.90
2018-06-14T23:10:45.597Z,99.90
2018-06-14T23:13:16.650Z,99.90
2018-06-14T23:15:45.214Z,99.90
2018-06-14T23:18:13.693Z,99.90
2018-06-14T23:20:42.296Z,99.90
2018-06-14T23:23:10.861Z,99.90
2018-06-14T23:28:07.728Z,99.90
2018-06-14T23:30:36.391Z,99.90
2018-06-14T23:35:33.085Z,99.90
2018-06-14T23:38:01.624Z,99.90
2018-06-14T23:40:30.097Z,99.90
2018-06-14T23:42:58.549Z,99.90
2018-06-14T23:45:27.002Z,99.90
2018-06-14T23:47:55.473Z,99.90
2018-06-14T23:50:23.963Z,99.90
2018-06-14T23:52:52.925Z,99.90
2018-06-14T23:55:21.385Z,99.90
2018-06-14T23:57:49.854Z,99.90
